Time;durP1;ratioP1;P1;durP2;ratioP2;P2;SDS_P1;SDS_P2;PMS_P1;PMS_P2;Temp;Humidity;BMP_temperature;BMP_pressure;BME280_temperature;BME280_humidity;BME280_pressure;Samples;Min_cycle;Max_cycle;Signal;HPM_P1;HPM_P2
2023/06/13 00:01:36;;;;;;;8.50;5.60;;;17.90;1.00;;;;;;5054226;28;20045;-76
2023/06/13 00:04:03;;;;;;;6.65;5.88;;;17.90;1.00;;;;;;5044737;28;20050;-77
2023/06/13 00:06:29;;;;;;;7.35;5.47;;;17.80;1.00;;;;;;5048745;28;20101;-75
2023/06/13 00:08:57;;;;;;;6.05;5.32;;;17.80;1.00;;;;;;5070728;28;20045;-75
2023/06/13 00:11:22;;;;;;;7.30;5.35;;;17.80;1.00;;;;;;5054692;28;20369;-77
2023/06/13 00:13:48;;;;;;;7.63;5.55;;;17.70;1.00;;;;;;5085914;28;20044;-73
2023/06/13 00:16:15;;;;;;;5.65;5.10;;;17.70;1.00;;;;;;5035700;28;20064;-75
2023/06/13 00:18:40;;;;;;;6.03;5.20;;;17.70;1.00;;;;;;5037968;28;20093;-74
2023/06/13 00:21:07;;;;;;;6.57;5.90;;;17.60;1.00;;;;;;5054095;28;20040;-73
2023/06/13 00:23:33;;;;;;;6.93;5.28;;;17.60;1.00;;;;;;5053439;28;20182;-74
2023/06/13 00:25:59;;;;;;;8.25;6.40;;;17.50;1.00;;;;;;5083266;28;20123;-75
2023/06/13 00:28:25;;;;;;;7.90;6.38;;;17.50;1.00;;;;;;5055768;28;20028;-73
2023/06/13 00:30:51;;;;;;;7.57;6.78;;;17.50;1.00;;;;;;5089734;28;20048;-73
2023/06/13 00:33:17;;;;;;;7.57;6.78;;;17.40;1.00;;;;;;5069130;28;20032;-74
2023/06/13 00:35:44;;;;;;;8.73;6.47;;;17.40;1.00;;;;;;5070198;28;20054;-74
2023/06/13 00:38:10;;;;;;;9.45;6.50;;;17.40;1.00;;;;;;5036196;28;20045;-74
2023/06/13 00:40:36;;;;;;;7.03;6.18;;;17.30;1.00;;;;;;5039578;28;20028;-76
2023/06/13 00:43:02;;;;;;;6.65;5.95;;;17.30;1.00;;;;;;5065136;28;20068;-75
2023/06/13 00:45:29;;;;;;;6.82;5.60;;;17.30;1.00;;;;;;5057169;28;20067;-76
2023/06/13 00:47:58;;;;;;;6.57;5.03;;;17.30;1.00;;;;;;5034699;28;20065;-73
2023/06/13 00:50:31;;;;;;;6.28;5.00;;;17.20;1.00;;;;;;5091224;28;20068;-76
2023/06/13 00:53:02;;;;;;;5.70;5.10;;;17.20;1.00;;;;;;5052076;28;20729;-77
2023/06/13 00:55:28;;;;;;;8.57;5.30;;;17.20;1.00;;;;;;5058881;28;20470;-74
2023/06/13 00:57:56;;;;;;;5.22;4.72;;;17.10;1.00;;;;;;5052313;28;20052;-75
2023/06/13 01:00:25;;;;;;;5.15;4.65;;;17.10;1.00;;;;;;5041736;28;20037;-75
2023/06/13 01:02:55;;;;;;;6.25;4.68;;;17.10;1.00;;;;;;5071220;28;20040;-73
2023/06/13 01:05:25;;;;;;;5.65;4.47;;;17.00;1.00;;;;;;5084291;28;20040;-73
2023/06/13 01:07:52;;;;;;;4.88;4.40;;;17.00;1.00;;;;;;5034332;28;20121;-78
2023/06/13 01:10:18;;;;;;;5.45;4.70;;;17.00;1.00;;;;;;5090032;28;20040;-79
2023/06/13 01:12:56;;;;;;;5.72;4.78;;;17.00;1.00;;;;;;5087725;28;20051;-78
2023/06/13 01:15:23;;;;;;;6.20;5.47;;;16.90;1.00;;;;;;5054946;28;20051;-74
2023/06/13 01:17:57;;;;;;;5.65;4.95;;;16.90;1.00;;;;;;5052417;28;20043;-77
2023/06/13 01:20:28;;;;;;;7.72;5.47;;;16.80;1.00;;;;;;5039212;28;20068;-74
2023/06/13 01:23:21;;;;;;;6.50;5.47;;;16.80;1.00;;;;;;5045887;28;20040;-76
2023/06/13 01:26:04;;;;;;;10.10;4.97;;;16.80;1.00;;;;;;5075173;28;20519;-78
2023/06/13 01:28:34;;;;;;;6.82;5.63;;;16.80;1.00;;;;;;5087753;28;20045;-74
2023/06/13 01:31:02;;;;;;;6.80;5.22;;;16.80;1.00;;;;;;5067112;28;20060;-76
2023/06/13 01:33:29;;;;;;;5.70;5.10;;;16.80;1.00;;;;;;5060209;28;20052;-76
2023/06/13 01:35:55;;;;;;;6.55;5.18;;;16.70;1.00;;;;;;5040722;28;20041;-79
2023/06/13 01:38:21;;;;;;;8.00;5.38;;;16.70;1.00;;;;;;5038355;28;20040;-76
2023/06/13 01:40:49;;;;;;;6.50;5.63;;;16.70;1.00;;;;;;5037264;28;20048;-78
2023/06/13 01:43:14;;;;;;;6.38;5.40;;;16.70;1.00;;;;;;5082992;28;20037;-75
2023/06/13 01:45:41;;;;;;;8.75;5.50;;;16.70;1.00;;;;;;5059807;28;20127;-77
2023/06/13 01:48:27;;;;;;;6.20;5.60;;;16.60;1.00;;;;;;5058037;28;20048;-75
2023/06/13 01:51:19;;;;;;;7.20;5.93;;;16.60;1.00;;;;;;5047697;28;20036;-76
2023/06/13 01:54:01;;;;;;;6.53;5.68;;;16.60;1.00;;;;;;5069552;28;20046;-77
2023/06/13 01:56:31;;;;;;;6.40;5.80;;;16.50;1.00;;;;;;5072401;28;20040;-76
2023/06/13 01:59:05;;;;;;;6.18;5.47;;;16.50;1.00;;;;;;5051722;28;20033;-79
2023/06/13 02:01:34;;;;;;;7.22;5.40;;;16.50;1.00;;;;;;5061398;28;20047;-78
2023/06/13 02:04:01;;;;;;;6.20;5.28;;;16.50;1.00;;;;;;5039958;28;20653;-76
2023/06/13 02:06:28;;;;;;;6.07;5.43;;;16.40;1.00;;;;;;5081586;28;20041;-74
2023/06/13 02:08:55;;;;;;;6.88;5.10;;;16.40;1.00;;;;;;5042116;28;20045;-77
2023/06/13 02:11:21;;;;;;;5.70;4.68;;;16.30;1.00;;;;;;5058689;28;20393;-76
2023/06/13 02:13:48;;;;;;;5.68;4.53;;;16.20;1.00;;;;;;5040928;28;20043;-76
2023/06/13 02:16:14;;;;;;;6.40;4.32;;;16.20;1.00;;;;;;5055441;28;20056;-77
2023/06/13 02:18:40;;;;;;;4.70;3.95;;;16.20;1.00;;;;;;5048971;28;20418;-77
2023/06/13 02:21:07;;;;;;;7.90;4.00;;;16.20;1.00;;;;;;5047312;28;20044;-72
2023/06/13 02:23:32;;;;;;;14.35;5.10;;;16.10;1.00;;;;;;5045238;28;20595;-73
2023/06/13 02:25:58;;;;;;;6.80;4.07;;;16.00;1.00;;;;;;5066034;28;20139;-73
2023/06/13 02:28:24;;;;;;;5.88;4.57;;;16.00;1.00;;;;;;5043997;28;20423;-74
2023/06/13 02:30:50;;;;;;;4.78;3.95;;;16.00;1.00;;;;;;5026869;28;20639;-74
2023/06/13 02:33:15;;;;;;;4.68;4.20;;;15.90;1.00;;;;;;5046125;28;20040;-76
2023/06/13 02:35:42;;;;;;;5.15;4.05;;;15.90;1.00;;;;;;5066298;28;20044;-76
2023/06/13 02:38:08;;;;;;;4.93;4.20;;;15.80;1.00;;;;;;5054474;28;20120;-74
2023/06/13 02:40:37;;;;;;;4.18;3.78;;;15.80;1.00;;;;;;5081981;28;20458;-74
2023/06/13 02:43:03;;;;;;;6.68;4.18;;;15.80;1.00;;;;;;5050810;28;20044;-75
2023/06/13 02:45:29;;;;;;;7.72;4.90;;;15.80;1.00;;;;;;5065120;28;20432;-72
2023/06/13 02:47:55;;;;;;;4.63;3.78;;;15.70;1.00;;;;;;5054630;28;20045;-74
2023/06/13 02:50:21;;;;;;;5.13;4.13;;;15.70;1.00;;;;;;5061627;28;20052;-73
2023/06/13 02:52:47;;;;;;;6.60;4.10;;;15.60;1.00;;;;;;5083148;28;20029;-73
2023/06/13 02:55:13;;;;;;;7.35;4.22;;;15.60;1.00;;;;;;5038110;28;20113;-72
2023/06/13 02:57:40;;;;;;;5.40;4.15;;;15.50;1.00;;;;;;5039725;28;20064;-73
2023/06/13 03:00:15;;;;;;;6.00;3.70;;;15.60;1.00;;;;;;5062051;28;20044;-76
2023/06/13 03:02:40;;;;;;;4.18;3.78;;;15.50;1.00;;;;;;5054935;28;20440;-73
2023/06/13 03:05:11;;;;;;;4.95;3.97;;;15.50;1.00;;;;;;5018628;28;20044;-74
2023/06/13 03:07:42;;;;;;;4.78;4.07;;;15.40;1.00;;;;;;5052489;28;20107;-76
2023/06/13 03:10:09;;;;;;;5.75;3.72;;;15.40;1.00;;;;;;5054013;28;20045;-74
2023/06/13 03:12:34;;;;;;;4.82;3.55;;;15.30;1.00;;;;;;5057984;28;20045;-78
2023/06/13 03:15:00;;;;;;;5.32;4.05;;;15.40;1.10;;;;;;5034283;28;20036;-74
2023/06/13 03:17:27;;;;;;;5.53;4.03;;;15.40;11.30;;;;;;5083662;28;20040;-74
2023/06/13 03:19:52;;;;;;;4.72;3.70;;;15.30;9.40;;;;;;5058374;28;20048;-75
2023/06/13 03:22:18;;;;;;;3.90;3.30;;;15.30;9.60;;;;;;5028523;28;20067;-74
2023/06/13 03:24:45;;;;;;;6.45;3.88;;;15.30;19.80;;;;;;5051535;28;20070;-72
2023/06/13 03:27:14;;;;;;;5.47;3.63;;;15.30;14.20;;;;;;5021676;28;20061;-75
2023/06/13 03:29:41;;;;;;;4.22;3.83;;;15.20;24.10;;;;;;5069712;28;20155;-73
2023/06/13 03:32:11;;;;;;;4.68;4.15;;;15.30;20.60;;;;;;5063825;28;20040;-76
2023/06/13 03:34:38;;;;;;;5.47;3.65;;;15.30;25.50;;;;;;5026470;28;20123;-74
2023/06/13 03:37:06;;;;;;;6.53;4.00;;;15.30;14.00;;;;;;5063051;28;20040;-75
2023/06/13 03:39:32;;;;;;;4.13;3.50;;;15.30;13.30;;;;;;5063044;28;20181;-74
2023/06/13 03:41:58;;;;;;;4.55;3.95;;;15.30;14.50;;;;;;5057121;28;20662;-76
2023/06/13 03:44:23;;;;;;;6.00;3.50;;;15.20;18.20;;;;;;5053579;28;20045;-76
2023/06/13 03:46:49;;;;;;;4.45;4.03;;;15.20;14.40;;;;;;5048637;28;20044;-77
2023/06/13 03:49:15;;;;;;;8.30;3.80;;;15.20;12.00;;;;;;5045676;28;20412;-72
2023/06/13 03:51:42;;;;;;;4.13;3.72;;;15.20;8.90;;;;;;5047678;28;20074;-77
2023/06/13 03:54:07;;;;;;;6.00;5.25;;;15.20;14.00;;;;;;5072466;28;20401;-75
2023/06/13 03:56:33;;;;;;;5.35;3.92;;;15.20;12.00;;;;;;5015190;28;20053;-71
2023/06/13 03:58:59;;;;;;;4.20;3.80;;;15.20;10.60;;;;;;5044486;28;20051;-76
2023/06/13 04:01:24;;;;;;;5.10;4.07;;;15.20;8.30;;;;;;5049126;28;20095;-75
2023/06/13 04:03:50;;;;;;;5.68;3.88;;;15.20;6.60;;;;;;5053700;28;20484;-74
2023/06/13 04:06:16;;;;;;;5.35;3.90;;;15.20;5.40;;;;;;5036370;28;20041;-76
2023/06/13 04:08:42;;;;;;;5.18;3.42;;;15.20;3.90;;;;;;5071395;28;20668;-74
2023/06/13 04:11:07;;;;;;;5.53;4.05;;;15.30;1.00;;;;;;5033617;28;20463;-77
2023/06/13 04:13:33;;;;;;;6.50;4.82;;;15.40;1.00;;;;;;5059887;28;20433;-72
2023/06/13 04:15:59;;;;;;;4.57;4.10;;;15.40;1.00;;;;;;5063210;28;20604;-76
2023/06/13 04:18:24;;;;;;;4.60;3.80;;;15.50;1.00;;;;;;5045539;28;20131;-73
2023/06/13 04:20:53;;;;;;;6.03;4.13;;;15.50;1.00;;;;;;5033608;28;20049;-74
2023/06/13 04:23:20;;;;;;;6.15;3.83;;;15.50;1.00;;;;;;5037193;28;20141;-79
2023/06/13 04:25:46;;;;;;;4.72;3.80;;;15.50;1.00;;;;;;5061742;28;20554;-77
2023/06/13 04:28:15;;;;;;;5.03;3.70;;;15.50;1.00;;;;;;5091324;28;20115;-75
2023/06/13 04:30:40;;;;;;;4.93;3.90;;;15.50;1.00;;;;;;5059532;28;20033;-76
2023/06/13 04:33:14;;;;;;;4.97;3.83;;;15.50;1.00;;;;;;5091009;28;20393;-75
2023/06/13 04:35:48;;;;;;;4.55;3.90;;;15.60;1.00;;;;;;5045900;28;20045;-75
2023/06/13 04:38:21;;;;;;;5.07;4.00;;;15.60;1.00;;;;;;5032640;28;20123;-75
2023/06/13 04:40:50;;;;;;;6.57;4.25;;;15.60;1.00;;;;;;5017886;28;20049;-74
2023/06/13 04:43:16;;;;;;;5.13;3.97;;;15.70;1.00;;;;;;5035932;28;20037;-76
2023/06/13 04:45:45;;;;;;;4.53;3.67;;;15.70;1.00;;;;;;5056788;28;20036;-79
2023/06/13 04:48:11;;;;;;;4.80;4.03;;;15.80;1.00;;;;;;5051385;28;20522;-77
2023/06/13 04:50:40;;;;;;;4.88;3.70;;;15.90;1.00;;;;;;5048211;28;20032;-77
2023/06/13 04:53:08;;;;;;;5.55;3.55;;;16.00;1.00;;;;;;5066211;28;20495;-73
2023/06/13 04:55:39;;;;;;;4.25;3.35;;;16.10;1.00;;;;;;5033361;28;20389;-76
2023/06/13 04:58:06;;;;;;;6.63;3.63;;;16.20;1.00;;;;;;5051868;28;20366;-81
2023/06/13 05:00:31;;;;;;;4.38;3.50;;;16.30;1.00;;;;;;5058629;28;20045;-74
2023/06/13 05:03:00;;;;;;;3.85;3.20;;;16.40;1.00;;;;;;5050555;28;20039;-76
2023/06/13 05:05:26;;;;;;;4.43;3.47;;;16.50;1.00;;;;;;5033115;28;20335;-77
2023/06/13 05:07:57;;;;;;;6.05;4.00;;;16.60;1.00;;;;;;5051904;28;20139;-77
2023/06/13 05:10:24;;;;;;;4.38;3.33;;;16.70;99.90;;;;;;5053083;28;20045;-77
2023/06/13 05:12:50;;;;;;;9.23;3.60;;;16.80;99.90;;;;;;5048723;28;20047;-77
2023/06/13 05:15:16;;;;;;;4.07;3.40;;;16.80;99.90;;;;;;5045895;28;20104;-75
2023/06/13 05:17:45;;;;;;;5.32;3.50;;;16.90;99.90;;;;;;5052913;28;20487;-81
2023/06/13 05:20:11;;;;;;;3.65;3.22;;;17.00;99.90;;;;;;5037842;28;20048;-77
2023/06/13 05:22:39;;;;;;;5.18;3.45;;;17.20;99.90;;;;;;5054571;28;20055;-77
2023/06/13 05:25:08;;;;;;;4.45;3.05;;;17.20;99.90;;;;;;5051433;28;20041;-79
2023/06/13 05:27:35;;;;;;;4.75;3.40;;;17.30;99.90;;;;;;5060593;28;20098;-80
2023/06/13 05:30:01;;;;;;;4.32;3.40;;;17.30;99.90;;;;;;5035898;28;20424;-76
2023/06/13 05:32:26;;;;;;;4.20;3.30;;;17.40;99.90;;;;;;5067352;28;20086;-74
2023/06/13 05:34:52;;;;;;;4.30;3.03;;;17.50;99.90;;;;;;5047171;28;20037;-76
2023/06/13 05:37:18;;;;;;;4.45;3.40;;;17.50;99.90;;;;;;5047761;28;20056;-75
2023/06/13 05:39:47;;;;;;;3.50;2.97;;;17.60;99.90;;;;;;5027888;28;20036;-78
2023/06/13 05:42:12;;;;;;;4.43;3.13;;;17.70;99.90;;;;;;5033004;28;20041;-78
2023/06/13 05:44:38;;;;;;;5.07;3.28;;;17.70;99.90;;;;;;5030205;28;20044;-76
2023/06/13 05:47:04;;;;;;;7.25;3.30;;;17.80;99.90;;;;;;5034512;28;20131;-74
2023/06/13 05:49:30;;;;;;;3.92;3.17;;;17.80;99.90;;;;;;5031622;28;20067;-78
2023/06/13 05:51:57;;;;;;;5.45;3.15;;;17.90;99.90;;;;;;5032824;28;20052;-77
2023/06/13 05:54:23;;;;;;;4.80;3.40;;;17.90;99.90;;;;;;5066003;28;20049;-76
2023/06/13 05:56:48;;;;;;;4.80;3.17;;;18.00;99.90;;;;;;5076750;28;20052;-77
2023/06/13 05:59:15;;;;;;;4.35;3.42;;;18.10;99.90;;;;;;5066182;28;20127;-78
2023/06/13 06:01:45;;;;;;;5.85;3.55;;;18.10;99.90;;;;;;5043879;28;20040;-72
2023/06/13 06:04:11;;;;;;;4.45;3.45;;;18.20;99.90;;;;;;5059510;28;20048;-75
2023/06/13 06:06:37;;;;;;;4.72;3.22;;;18.30;99.90;;;;;;5065166;28;20059;-73
2023/06/13 06:09:03;;;;;;;4.05;2.75;;;18.40;99.90;;;;;;5043499;28;20124;-75
2023/06/13 06:11:33;;;;;;;3.85;2.78;;;18.50;99.90;;;;;;5043920;28;20044;-70
2023/06/13 06:13:59;;;;;;;4.70;2.75;;;18.70;99.90;;;;;;5054519;28;20119;-74
2023/06/13 06:16:25;;;;;;;3.72;2.90;;;18.70;99.90;;;;;;5049371;28;20130;-73
2023/06/13 06:18:53;;;;;;;4.05;2.92;;;18.90;99.90;;;;;;5036976;28;20048;-74
2023/06/13 06:21:19;;;;;;;3.05;2.53;;;18.90;99.90;;;;;;5051657;28;20231;-74
2023/06/13 06:23:45;;;;;;;4.97;2.83;;;19.00;99.90;;;;;;5053923;28;20047;-78
2023/06/13 06:26:11;;;;;;;4.82;2.75;;;19.20;99.90;;;;;;5063635;28;20064;-72
2023/06/13 06:28:37;;;;;;;3.78;2.90;;;19.30;99.90;;;;;;5042657;28;20036;-75
2023/06/13 06:31:05;;;;;;;3.05;2.60;;;19.40;99.90;;;;;;5040546;28;20521;-77
2023/06/13 06:33:31;;;;;;;3.80;2.33;;;19.50;99.90;;;;;;5029803;28;20116;-75
2023/06/13 06:35:56;;;;;;;3.55;2.90;;;19.70;99.90;;;;;;5049915;28;20119;-75
2023/06/13 06:38:22;;;;;;;3.83;2.60;;;19.90;99.90;;;;;;5027017;28;20068;-75
2023/06/13 06:40:48;;;;;;;4.85;2.40;;;20.10;99.90;;;;;;5042734;28;20650;-75
2023/06/13 06:43:14;;;;;;;3.88;2.50;;;20.20;99.90;;;;;;5036036;28;20041;-72
2023/06/13 06:45:40;;;;;;;3.88;2.60;;;20.40;99.90;;;;;;5059463;28;20120;-74
2023/06/13 06:48:05;;;;;;;3.55;2.42;;;20.80;99.90;;;;;;5066123;28;20039;-76
2023/06/13 06:50:31;;;;;;;2.75;2.30;;;20.90;99.90;;;;;;5037353;28;20053;-75
2023/06/13 06:52:57;;;;;;;2.78;2.40;;;21.20;99.90;;;;;;5051258;28;20047;-74
2023/06/13 06:55:23;;;;;;;3.22;2.10;;;21.30;99.90;;;;;;5055229;28;20067;-74
2023/06/13 06:57:48;;;;;;;3.95;2.65;;;21.30;99.90;;;;;;5035215;28;20053;-78
2023/06/13 07:00:15;;;;;;;3.75;2.63;;;21.40;67.40;;;;;;5056550;28;20094;-76
2023/06/13 07:02:41;;;;;;;5.60;2.67;;;21.60;99.90;;;;;;5064219;28;20037;-77
2023/06/13 07:05:08;;;;;;;3.83;2.50;;;21.70;99.90;;;;;;5082586;28;20041;-73
2023/06/13 07:07:34;;;;;;;2.50;2.05;;;21.80;99.90;;;;;;5034509;28;20064;-77
2023/06/13 07:09:59;;;;;;;3.15;2.42;;;21.80;99.90;;;;;;5051697;28;21000;-72
2023/06/13 07:12:25;;;;;;;2.50;2.30;;;22.00;99.90;;;;;;5016601;28;20033;-75
2023/06/13 07:14:51;;;;;;;4.40;2.60;;;22.00;94.60;;;;;;5025156;28;20044;-71
2023/06/13 07:17:17;;;;;;;2.83;2.10;;;22.40;99.90;;;;;;5032095;28;20049;-74
2023/06/13 07:19:42;;;;;;;2.83;2.35;;;22.40;99.90;;;;;;5036851;28;20043;-70
2023/06/13 07:22:09;;;;;;;3.15;2.53;;;22.60;99.90;;;;;;5080907;28;20503;-72
2023/06/13 07:24:35;;;;;;;4.20;2.67;;;22.60;99.90;;;;;;5057472;28;20044;-76
2023/06/13 07:27:00;;;;;;;2.90;2.45;;;22.30;99.90;;;;;;5063446;28;20045;-73
2023/06/13 07:29:26;;;;;;;3.95;2.50;;;22.10;99.90;;;;;;5046842;28;20037;-71
2023/06/13 07:31:52;;;;;;;3.15;2.45;;;22.30;99.90;;;;;;5031009;28;20033;-76
2023/06/13 07:34:18;;;;;;;3.22;2.55;;;22.50;99.90;;;;;;5066043;28;20437;-76
2023/06/13 07:36:43;;;;;;;3.97;2.35;;;22.50;99.90;;;;;;5061921;28;20036;-74
2023/06/13 07:39:13;;;;;;;2.90;2.60;;;22.40;99.90;;;;;;5058819;28;20048;-73
2023/06/13 07:41:39;;;;;;;3.90;2.80;;;22.30;99.90;;;;;;5052957;28;20052;-74
2023/06/13 07:44:06;;;;;;;3.67;2.58;;;22.30;99.90;;;;;;5051804;28;20667;-74
2023/06/13 07:46:39;;;;;;;2.90;2.60;;;22.50;99.90;;;;;;5048252;28;20449;-73
2023/06/13 07:49:05;;;;;;;4.07;3.03;;;22.50;99.90;;;;;;5037415;28;20410;-71
2023/06/13 07:51:30;;;;;;;4.40;3.00;;;22.50;99.90;;;;;;5066936;28;20058;-74
2023/06/13 07:53:56;;;;;;;3.30;2.75;;;22.70;99.90;;;;;;5047180;28;20444;-73
2023/06/13 07:56:22;;;;;;;3.17;2.70;;;22.70;99.90;;;;;;5053130;28;20094;-74
2023/06/13 07:58:49;;;;;;;2.85;2.58;;;22.80;99.90;;;;;;5046344;28;20036;-74
2023/06/13 08:01:15;;;;;;;6.90;2.83;;;22.90;99.90;;;;;;5065541;28;20131;-71
2023/06/13 08:03:43;;;;;;;3.47;2.65;;;22.90;99.90;;;;;;5056435;28;20769;-74
2023/06/13 08:06:09;;;;;;;3.05;2.70;;;23.00;99.90;;;;;;5067237;28;20084;-72
2023/06/13 08:08:35;;;;;;;4.78;3.08;;;22.80;99.90;;;;;;5082463;28;20460;-72
2023/06/13 08:11:00;;;;;;;5.82;3.05;;;22.90;99.90;;;;;;5053399;28;20044;-73
2023/06/13 08:13:26;;;;;;;3.38;2.75;;;23.20;99.90;;;;;;5036111;28;20036;-72
2023/06/13 08:15:52;;;;;;;3.08;2.78;;;23.20;98.90;;;;;;5049068;28;20035;-73
2023/06/13 08:18:17;;;;;;;3.47;2.95;;;23.20;61.80;;;;;;5040728;28;20036;-70
2023/06/13 08:20:43;;;;;;;4.05;3.00;;;23.30;80.60;;;;;;5036266;28;20099;-74
2023/06/13 08:23:09;;;;;;;5.38;2.80;;;23.40;59.80;;;;;;5049930;28;20047;-72
2023/06/13 08:25:35;;;;;;;6.82;2.90;;;23.40;25.40;;;;;;5033212;28;20387;-74
2023/06/13 08:28:01;;;;;;;5.18;3.08;;;23.60;5.40;;;;;;5020470;28;20037;-74
2023/06/13 08:30:27;;;;;;;3.45;2.60;;;23.40;1.00;;;;;;5065582;28;20103;-74
2023/06/13 08:32:54;;;;;;;3.30;3.00;;;23.50;1.00;;;;;;5049422;28;20044;-74
2023/06/13 08:35:21;;;;;;;3.33;2.90;;;23.80;1.00;;;;;;5066109;28;20436;-76
2023/06/13 08:37:46;;;;;;;3.60;2.75;;;23.80;1.00;;;;;;5036512;28;20032;-74
2023/06/13 08:40:12;;;;;;;4.22;3.10;;;24.00;2.00;;;;;;5060439;28;20043;-72
2023/06/13 08:42:39;;;;;;;3.78;3.30;;;24.20;2.30;;;;;;5068266;28;20048;-73
2023/06/13 08:45:09;;;;;;;5.40;2.90;;;24.20;1.00;;;;;;5033429;28;20040;-71
2023/06/13 08:47:35;;;;;;;3.15;2.85;;;24.50;1.00;;;;;;5066029;28;20045;-75
2023/06/13 08:50:02;;;;;;;4.32;2.90;;;24.50;1.00;;;;;;5063631;28;20526;-73
2023/06/13 08:52:38;;;;;;;3.08;2.75;;;24.70;1.00;;;;;;5050516;28;20052;-74
2023/06/13 08:55:08;;;;;;;3.70;3.00;;;24.70;1.00;;;;;;5067579;28;20056;-74
2023/06/13 08:57:37;;;;;;;5.43;3.00;;;24.80;1.00;;;;;;5059121;28;20430;-73
2023/06/13 09:00:06;;;;;;;3.17;2.88;;;24.70;1.00;;;;;;5063763;28;20041;-73
2023/06/13 09:02:32;;;;;;;3.25;2.67;;;24.80;1.00;;;;;;5059151;28;20078;-73
2023/06/13 09:04:59;;;;;;;2.95;2.70;;;24.80;1.00;;;;;;5068475;28;20037;-75
2023/06/13 09:07:25;;;;;;;4.68;2.83;;;24.90;1.00;;;;;;5052222;28;20127;-74
2023/06/13 09:09:53;;;;;;;4.28;3.13;;;25.00;1.00;;;;;;5048729;28;20036;-73
2023/06/13 09:12:20;;;;;;;3.97;2.95;;;24.70;1.00;;;;;;5038809;28;20044;-73
2023/06/13 09:14:46;;;;;;;3.25;2.90;;;24.80;1.00;;;;;;5085696;28;20440;-72
2023/06/13 09:17:18;;;;;;;3.88;2.65;;;25.00;1.00;;;;;;5059931;28;20045;-72
2023/06/13 09:19:45;;;;;;;3.38;3.08;;;25.40;1.00;;;;;;5049016;28;20055;-73
2023/06/13 09:22:10;;;;;;;5.18;3.30;;;25.40;1.00;;;;;;5032049;28;20045;-73
2023/06/13 09:24:36;;;;;;;3.42;3.00;;;25.30;1.00;;;;;;5061385;28;20770;-74
2023/06/13 09:27:03;;;;;;;3.33;2.80;;;25.10;1.00;;;;;;5101910;28;20036;-73
2023/06/13 09:29:35;;;;;;;3.65;3.08;;;25.50;1.00;;;;;;5065894;28;20079;-74
2023/06/13 09:32:03;;;;;;;4.03;2.72;;;25.10;99.90;;;;;;5064292;28;20123;-73
2023/06/13 09:34:29;;;;;;;4.03;3.03;;;26.10;99.90;;;;;;5048818;28;20049;-74
2023/06/13 09:36:59;;;;;;;5.15;2.90;;;25.80;99.90;;;;;;5024911;28;20107;-76
2023/06/13 09:39:27;;;;;;;3.83;3.13;;;26.00;99.90;;;;;;5065986;28;20048;-74
2023/06/13 09:41:59;;;;;;;5.25;2.80;;;25.90;99.90;;;;;;5031754;28;20272;-76
2023/06/13 09:44:25;;;;;;;3.22;2.90;;;26.30;1.00;;;;;;5048768;28;20480;-77
2023/06/13 09:46:54;;;;;;;3.28;2.75;;;26.40;1.00;;;;;;5048531;28;20098;-74
2023/06/13 09:49:20;;;;;;;2.97;2.67;;;27.20;1.00;;;;;;5049603;28;20045;-74
2023/06/13 09:51:46;;;;;;;4.20;3.15;;;26.80;1.00;;;;;;5035934;28;20076;-77
2023/06/13 09:54:13;;;;;;;3.65;2.90;;;26.20;1.00;;;;;;5044858;28;20121;-78
2023/06/13 09:56:45;;;;;;;3.78;2.80;;;26.90;1.00;;;;;;5064353;28;20048;-75
2023/06/13 09:59:21;;;;;;;4.10;2.92;;;26.50;1.00;;;;;;5035990;28;20489;-75
2023/06/13 10:01:49;;;;;;;3.45;3.08;;;26.80;1.00;;;;;;5051098;28;20040;-75
2023/06/13 10:04:15;;;;;;;5.20;3.42;;;26.70;1.00;;;;;;5026226;28;20044;-77
2023/06/13 10:06:42;;;;;;;3.88;2.97;;;27.40;1.00;;;;;;5057162;28;20076;-74
2023/06/13 10:09:08;;;;;;;3.08;2.58;;;27.30;1.00;;;;;;5050460;28;20033;-72
2023/06/13 10:11:50;;;;;;;4.07;2.70;;;27.20;1.00;;;;;;5066906;28;20043;-73
2023/06/13 10:14:19;;;;;;;3.45;2.58;;;26.60;1.00;;;;;;5040315;28;20033;-75
2023/06/13 10:16:49;;;;;;;5.47;2.70;;;27.50;1.00;;;;;;5047710;28;20044;-76
2023/06/13 10:19:19;;;;;;;5.35;3.00;;;28.10;1.00;;;;;;5040914;28;20154;-73
2023/06/13 10:21:46;;;;;;;3.95;3.13;;;27.90;1.00;;;;;;5035634;28;20380;-76
2023/06/13 10:24:13;;;;;;;2.88;2.42;;;27.30;1.00;;;;;;5052100;28;20045;-78
2023/06/13 10:26:46;;;;;;;6.40;3.40;;;28.30;1.00;;;;;;5063707;28;20098;-76
2023/06/13 10:29:33;;;;;;;4.10;2.70;;;28.00;1.00;;;;;;5040111;28;20079;-76
2023/06/13 10:32:34;;;;;;;3.50;2.85;;;27.90;1.00;;;;;;5047487;28;20033;-74
2023/06/13 10:35:38;;;;;;;3.88;2.40;;;26.80;1.00;;;;;;5028782;28;20048;-75
2023/06/13 10:38:33;;;;;;;5.57;2.70;;;27.60;1.00;;;;;;5072116;28;20119;-75
2023/06/13 10:41:19;;;;;;;3.13;2.30;;;27.30;1.00;;;;;;5044264;28;20072;-76
2023/06/13 10:44:09;;;;;;;4.43;2.75;;;26.70;1.00;;;;;;5059373;28;20393;-77
2023/06/13 10:46:35;;;;;;;5.28;3.10;;;26.60;1.40;;;;;;5058520;28;20083;-76
2023/06/13 10:49:02;;;;;;;3.92;2.40;;;25.90;4.80;;;;;;5040603;28;20041;-74
2023/06/13 10:51:30;;;;;;;6.50;2.65;;;26.10;26.20;;;;;;5080730;28;20059;-74
2023/06/13 10:54:02;;;;;;;3.00;2.70;;;26.70;30.60;;;;;;5057152;28;20041;-72
2023/06/13 10:56:32;;;;;;;4.70;2.67;;;26.70;9.70;;;;;;5060482;28;20127;-74
2023/06/13 10:59:02;;;;;;;2.70;2.50;;;26.40;1.00;;;;;;5055797;28;20054;-72
2023/06/13 11:01:33;;;;;;;2.92;2.30;;;26.40;8.80;;;;;;5050178;28;20085;-73
2023/06/13 11:04:12;;;;;;;3.20;2.50;;;26.20;12.40;;;;;;5047886;28;20613;-75
2023/06/13 11:06:41;;;;;;;4.10;2.50;;;26.80;1.00;;;;;;5057357;28;20440;-74
2023/06/13 11:09:08;;;;;;;2.55;2.35;;;27.20;1.00;;;;;;5052511;28;20083;-71
2023/06/13 11:11:54;;;;;;;3.58;2.60;;;26.90;1.00;;;;;;5054454;28;20040;-74
2023/06/13 11:14:27;;;;;;;3.30;2.35;;;26.20;1.00;;;;;;5042681;28;20820;-72
2023/06/13 11:16:54;;;;;;;2.63;2.30;;;26.50;1.00;;;;;;5084018;28;20395;-75
2023/06/13 11:19:27;;;;;;;4.78;2.53;;;26.90;9.60;;;;;;5051281;28;20102;-72
2023/06/13 11:21:59;;;;;;;3.10;2.42;;;26.50;1.00;;;;;;5052027;28;20041;-74
2023/06/13 11:24:29;;;;;;;3.65;2.33;;;26.60;1.00;;;;;;5034216;28;20107;-73
2023/06/13 11:26:57;;;;;;;3.30;2.40;;;26.90;1.00;;;;;;5034852;28;20045;-73
2023/06/13 11:29:23;;;;;;;4.30;2.50;;;26.60;1.00;;;;;;5054062;28;20128;-75
2023/06/13 11:31:53;;;;;;;3.42;2.30;;;26.60;1.00;;;;;;5055003;28;20614;-73
2023/06/13 11:34:24;;;;;;;3.33;2.67;;;27.50;1.00;;;;;;5079275;28;20500;-72
2023/06/13 11:36:54;;;;;;;4.85;2.80;;;27.00;1.00;;;;;;5073312;28;20044;-75
2023/06/13 11:39:45;;;;;;;3.65;2.35;;;26.50;1.00;;;;;;5044333;28;20045;-76
2023/06/13 11:42:11;;;;;;;4.20;2.60;;;26.90;1.00;;;;;;5078775;28;20492;-73
2023/06/13 11:44:37;;;;;;;2.55;2.35;;;26.70;1.00;;;;;;5052444;28;20040;-73
2023/06/13 11:47:04;;;;;;;2.53;2.33;;;26.60;1.00;;;;;;5069873;28;20547;-72
2023/06/13 11:49:30;;;;;;;3.00;2.50;;;26.60;1.00;;;;;;5065735;28;20097;-75
2023/06/13 11:51:56;;;;;;;5.13;2.33;;;26.10;1.00;;;;;;5050465;28;20470;-72
2023/06/13 11:54:31;;;;;;;2.50;2.28;;;27.20;1.00;;;;;;5062685;28;20048;-72
2023/06/13 11:56:56;;;;;;;3.80;2.40;;;26.50;99.90;;;;;;5067795;28;20040;-71
2023/06/13 11:59:25;;;;;;;3.95;2.53;;;26.50;99.90;;;;;;5030481;28;20060;-70
2023/06/13 12:01:55;;;;;;;11.88;2.85;;;26.60;99.90;;;;;;5050199;28;20036;-72
2023/06/13 12:04:25;;;;;;;4.00;2.30;;;26.30;99.90;;;;;;5044452;28;20043;-72
2023/06/13 12:06:53;;;;;;;4.45;2.50;;;26.80;1.00;;;;;;5066327;28;20036;-73
2023/06/13 12:09:19;;;;;;;2.63;2.42;;;26.90;99.90;;;;;;5046375;28;20463;-71
2023/06/13 12:11:46;;;;;;;7.93;2.50;;;26.50;99.90;;;;;;5049336;28;20075;-72
2023/06/13 12:14:12;;;;;;;3.38;2.30;;;26.60;99.90;;;;;;5067411;28;20040;-72
2023/06/13 12:16:39;;;;;;;4.00;2.50;;;26.70;99.90;;;;;;5033833;28;20102;-73
2023/06/13 12:19:06;;;;;;;2.65;2.42;;;26.20;99.90;;;;;;5031180;28;20049;-71
2023/06/13 12:21:37;;;;;;;3.17;2.50;;;27.10;99.90;;;;;;5020552;28;20752;-72
2023/06/13 12:24:07;;;;;;;4.07;2.47;;;26.70;99.90;;;;;;5068619;28;20044;-72
2023/06/13 12:26:36;;;;;;;3.63;2.40;;;27.40;99.90;;;;;;5069953;28;20129;-71
2023/06/13 12:29:11;;;;;;;4.88;2.58;;;27.10;99.90;;;;;;5063380;28;20045;-72
2023/06/13 12:31:44;;;;;;;3.97;2.67;;;27.00;99.90;;;;;;5033444;28;20537;-73
2023/06/13 12:34:28;;;;;;;2.15;1.90;;;26.50;99.90;;;;;;5056229;28;20037;-74
2023/06/13 12:37:04;;;;;;;2.90;2.20;;;26.60;99.90;;;;;;5049273;28;20117;-72
2023/06/13 12:39:34;;;;;;;2.70;2.28;;;26.40;99.90;;;;;;5051816;28;20151;-75
2023/06/13 12:42:02;;;;;;;5.70;2.88;;;27.00;99.90;;;;;;5050070;28;20041;-72
2023/06/13 12:44:33;;;;;;;3.50;2.35;;;26.60;99.90;;;;;;5033646;28;20391;-73
2023/06/13 12:47:04;;;;;;;2.42;2.20;;;27.10;99.90;;;;;;5052028;28;20079;-70
2023/06/13 12:49:37;;;;;;;3.78;2.38;;;26.90;99.90;;;;;;5068246;28;20094;-73
2023/06/13 12:52:05;;;;;;;4.43;2.50;;;27.40;99.90;;;;;;5052631;28;20072;-70
2023/06/13 12:54:35;;;;;;;5.18;2.40;;;27.20;99.90;;;;;;5056567;28;20104;-71
2023/06/13 12:57:06;;;;;;;2.50;2.10;;;26.60;99.90;;;;;;5028757;28;20138;-73
2023/06/13 12:59:34;;;;;;;2.72;2.25;;;27.20;99.90;;;;;;5060329;28;20041;-71